Аэропорт: Национальный аэропорт Минск. Минск

ICAO: UMMS

METAR:
2020-08-13 11:30:00
UMMS 131130Z 02003G06MPS 350V060 9999 BKN043 16/06 Q1019 R31R/CLRD// R31L/////// NOSIG
METAR:
2020-08-13 05:02:00
TAF UMMS 130502Z 1306/1406 35005G10MPS 9999 BKN025 TEMPO 1312/1318 -SHRA SCT020CB BECMG 1318/1320 VRB02MPS TEMPO 1320/1406 1200 BCFG BR SCT003